sensor_id;sensor_type;location;lat;lon;timestamp;temperature;humidity
47368;DHT22;34646;47.964;7.982;2023-03-23T00:03:37;16.80;90.30
47368;DHT22;34646;47.964;7.982;2023-03-23T00:09:38;17.20;90.40
47368;DHT22;34646;47.964;7.982;2023-03-23T00:15:41;16.90;90.30
47368;DHT22;34646;47.964;7.982;2023-03-23T00:21:43;17.40;90.50
47368;DHT22;34646;47.964;7.982;2023-03-23T00:27:43;16.90;90.30
47368;DHT22;34646;47.964;7.982;2023-03-23T00:33:44;16.90;90.30
47368;DHT22;34646;47.964;7.982;2023-03-23T00:39:45;17.00;88.90
47368;DHT22;34646;47.964;7.982;2023-03-23T00:45:46;16.60;90.30
47368;DHT22;34646;47.964;7.982;2023-03-23T00:51:55;17.20;90.40
47368;DHT22;34646;47.964;7.982;2023-03-23T00:57:57;16.60;90.30
47368;DHT22;34646;47.964;7.982;2023-03-23T01:03:58;16.90;90.40
47368;DHT22;34646;47.964;7.982;2023-03-23T01:10:01;16.70;90.30
47368;DHT22;34646;47.964;7.982;2023-03-23T01:16:03;16.60;90.30
47368;DHT22;34646;47.964;7.982;2023-03-23T01:22:03;17.20;90.40
47368;DHT22;34646;47.964;7.982;2023-03-23T01:28:04;16.60;90.20
47368;DHT22;34646;47.964;7.982;2023-03-23T01:34:05;16.90;90.30
47368;DHT22;34646;47.964;7.982;2023-03-23T01:40:07;16.90;90.30
47368;DHT22;34646;47.964;7.982;2023-03-23T01:46:08;16.70;90.30
47368;DHT22;34646;47.964;7.982;2023-03-23T01:52:25;16.90;82.10
47368;DHT22;34646;47.964;7.982;2023-03-23T01:58:32;17.30;90.40
47368;DHT22;34646;47.964;7.982;2023-03-23T02:04:34;17.00;90.40
47368;DHT22;34646;47.964;7.982;2023-03-23T02:10:36;16.90;90.30
47368;DHT22;34646;47.964;7.982;2023-03-23T02:17:30;17.00;90.40
47368;DHT22;34646;47.964;7.982;2023-03-23T02:23:44;16.80;90.30
47368;DHT22;34646;47.964;7.982;2023-03-23T02:42:29;16.60;90.30
47368;DHT22;34646;47.964;7.982;2023-03-23T02:48:33;16.60;90.30
47368;DHT22;34646;47.964;7.982;2023-03-23T02:54:35;17.10;90.40
47368;DHT22;34646;47.964;7.982;2023-03-23T03:00:36;16.90;90.40
47368;DHT22;34646;47.964;7.982;2023-03-23T03:19:13;16.70;90.40
47368;DHT22;34646;47.964;7.982;2023-03-23T03:25:16;16.80;90.40
47368;DHT22;34646;47.964;7.982;2023-03-23T03:31:21;16.70;82.40
47368;DHT22;34646;47.964;7.982;2023-03-23T03:37:22;16.90;89.80
47368;DHT22;34646;47.964;7.982;2023-03-23T03:43:24;16.80;90.40
47368;DHT22;34646;47.964;7.982;2023-03-23T03:55:28;16.70;90.40
47368;DHT22;34646;47.964;7.982;2023-03-23T04:01:29;16.60;90.40
47368;DHT22;34646;47.964;7.982;2023-03-23T04:07:31;16.80;90.40
47368;DHT22;34646;47.964;7.982;2023-03-23T04:13:32;16.80;90.50
47368;DHT22;34646;47.964;7.982;2023-03-23T04:19:40;16.90;90.50
47368;DHT22;34646;47.964;7.982;2023-03-23T04:25:41;16.50;90.40
47368;DHT22;34646;47.964;7.982;2023-03-23T04:31:44;16.60;90.40
47368;DHT22;34646;47.964;7.982;2023-03-23T04:38:05;16.90;90.50
47368;DHT22;34646;47.964;7.982;2023-03-23T04:44:07;16.80;90.50
47368;DHT22;34646;47.964;7.982;2023-03-23T04:50:14;16.90;90.50
47368;DHT22;34646;47.964;7.982;2023-03-23T04:56:16;16.50;90.50
47368;DHT22;34646;47.964;7.982;2023-03-23T05:02:19;16.40;90.40
47368;DHT22;34646;47.964;7.982;2023-03-23T05:08:22;16.50;90.40
47368;DHT22;34646;47.964;7.982;2023-03-23T05:14:25;16.30;90.40
47368;DHT22;34646;47.964;7.982;2023-03-23T05:20:41;16.50;90.30
47368;DHT22;34646;47.964;7.982;2023-03-23T05:26:48;16.50;90.40
47368;DHT22;34646;47.964;7.982;2023-03-23T05:39:17;16.90;90.50
47368;DHT22;34646;47.964;7.982;2023-03-23T05:45:39;16.70;90.40
47368;DHT22;34646;47.964;7.982;2023-03-23T05:57:42;16.50;90.40
47368;DHT22;34646;47.964;7.982;2023-03-23T06:04:05;16.80;90.40
47368;DHT22;34646;47.964;7.982;2023-03-23T06:10:14;16.60;90.40
47368;DHT22;34646;47.964;7.982;2023-03-23T06:16:19;16.70;90.30
47368;DHT22;34646;47.964;7.982;2023-03-23T06:28:41;16.70;90.20
47368;DHT22;34646;47.964;7.982;2023-03-23T06:34:41;16.80;90.10
47368;DHT22;34646;47.964;7.982;2023-03-23T06:53:20;16.60;90.00
47368;DHT22;34646;47.964;7.982;2023-03-23T06:59:22;17.10;90.10
47368;DHT22;34646;47.964;7.982;2023-03-23T07:05:23;17.00;90.10
47368;DHT22;34646;47.964;7.982;2023-03-23T07:11:24;17.20;82.50
47368;DHT22;34646;47.964;7.982;2023-03-23T07:17:26;16.90;90.10
47368;DHT22;34646;47.964;7.982;2023-03-23T07:23:51;17.20;90.10
47368;DHT22;34646;47.964;7.982;2023-03-23T07:30:04;17.20;90.10
47368;DHT22;34646;47.964;7.982;2023-03-23T07:36:06;17.40;90.10
47368;DHT22;34646;47.964;7.982;2023-03-23T07:42:09;17.30;90.10
47368;DHT22;34646;47.964;7.982;2023-03-23T07:48:22;17.30;90.10
47368;DHT22;34646;47.964;7.982;2023-03-23T07:54:24;17.40;81.00
47368;DHT22;34646;47.964;7.982;2023-03-23T08:00:33;17.30;90.10
47368;DHT22;34646;47.964;7.982;2023-03-23T08:13:15;17.50;90.30
47368;DHT22;34646;47.964;7.982;2023-03-23T08:19:18;17.60;90.50
47368;DHT22;34646;47.964;7.982;2023-03-23T08:25:34;17.80;90.50
47368;DHT22;34646;47.964;7.982;2023-03-23T08:38:19;17.50;90.60
47368;DHT22;34646;47.964;7.982;2023-03-23T08:44:41;17.70;90.60
47368;DHT22;34646;47.964;7.982;2023-03-23T08:51:02;17.60;90.70
47368;DHT22;34646;47.964;7.982;2023-03-23T08:57:36;18.00;90.80
47368;DHT22;34646;47.964;7.982;2023-03-23T09:03:55;17.50;90.80
47368;DHT22;34646;47.964;7.982;2023-03-23T09:10:08;17.40;90.80
47368;DHT22;34646;47.964;7.982;2023-03-23T09:16:09;18.00;91.00
47368;DHT22;34646;47.964;7.982;2023-03-23T09:22:10;17.80;83.90
47368;DHT22;34646;47.964;7.982;2023-03-23T09:28:11;17.80;91.00
47368;DHT22;34646;47.964;7.982;2023-03-23T09:34:12;17.80;90.90
47368;DHT22;34646;47.964;7.982;2023-03-23T09:40:22;17.80;90.90
47368;DHT22;34646;47.964;7.982;2023-03-23T09:52:58;17.50;89.60
47368;DHT22;34646;47.964;7.982;2023-03-23T10:11:46;17.80;91.00
47368;DHT22;34646;47.964;7.982;2023-03-23T10:18:01;18.30;91.10
47368;DHT22;34646;47.964;7.982;2023-03-23T10:24:09;18.00;91.10
47368;DHT22;34646;47.964;7.982;2023-03-23T10:30:13;18.00;91.20
47368;DHT22;34646;47.964;7.982;2023-03-23T10:36:30;17.90;91.10
47368;DHT22;34646;47.964;7.982;2023-03-23T10:42:34;18.10;91.10
47368;DHT22;34646;47.964;7.982;2023-03-23T10:48:38;18.20;91.20
47368;DHT22;34646;47.964;7.982;2023-03-23T10:54:48;17.80;91.10
47368;DHT22;34646;47.964;7.982;2023-03-23T11:00:50;18.30;91.30
47368;DHT22;34646;47.964;7.982;2023-03-23T11:06:59;17.80;91.30
47368;DHT22;34646;47.964;7.982;2023-03-23T11:13:01;18.10;91.30
47368;DHT22;34646;47.964;7.982;2023-03-23T11:19:24;18.50;91.30
47368;DHT22;34646;47.964;7.982;2023-03-23T11:25:25;18.00;91.20
47368;DHT22;34646;47.964;7.982;2023-03-23T11:31:30;18.50;91.30
47368;DHT22;34646;47.964;7.982;2023-03-23T11:37:40;18.40;91.20
47368;DHT22;34646;47.964;7.982;2023-03-23T11:43:45;18.10;90.40
47368;DHT22;34646;47.964;7.982;2023-03-23T11:49:57;18.30;91.50
47368;DHT22;34646;47.964;7.982;2023-03-23T12:02:32;18.30;91.10
47368;DHT22;34646;47.964;7.982;2023-03-23T12:08:48;18.50;91.20
47368;DHT22;34646;47.964;7.982;2023-03-23T12:21:28;18.20;91.00
47368;DHT22;34646;47.964;7.982;2023-03-23T12:27:49;18.40;91.00
47368;DHT22;34646;47.964;7.982;2023-03-23T12:33:55;18.10;91.00
47368;DHT22;34646;47.964;7.982;2023-03-23T12:52:58;18.20;91.00
47368;DHT22;34646;47.964;7.982;2023-03-23T13:11:34;18.30;91.20
47368;DHT22;34646;47.964;7.982;2023-03-23T13:19:16;18.00;91.10
47368;DHT22;34646;47.964;7.982;2023-03-23T13:25:00;18.40;91.30
47368;DHT22;34646;47.964;7.982;2023-03-23T13:31:11;18.00;83.80
47368;DHT22;34646;47.964;7.982;2023-03-23T13:43:29;18.30;91.20
47368;DHT22;34646;47.964;7.982;2023-03-23T13:49:32;18.00;83.80
47368;DHT22;34646;47.964;7.982;2023-03-23T13:55:38;17.80;91.10
47368;DHT22;34646;47.964;7.982;2023-03-23T14:01:40;17.70;91.00
47368;DHT22;34646;47.964;7.982;2023-03-23T14:07:55;18.20;91.20
47368;DHT22;34646;47.964;7.982;2023-03-23T14:14:18;17.00;80.30
47368;DHT22;34646;47.964;7.982;2023-03-23T14:20:33;17.90;91.10
47368;DHT22;34646;47.964;7.982;2023-03-23T14:26:34;17.80;91.10
47368;DHT22;34646;47.964;7.982;2023-03-23T14:32:36;17.70;91.10
47368;DHT22;34646;47.964;7.982;2023-03-23T14:38:37;18.00;91.20
47368;DHT22;34646;47.964;7.982;2023-03-23T14:44:42;17.80;83.80
47368;DHT22;34646;47.964;7.982;2023-03-23T14:51:00;18.00;91.20
47368;DHT22;34646;47.964;7.982;2023-03-23T14:57:19;17.60;91.10
47368;DHT22;34646;47.964;7.982;2023-03-23T15:03:27;18.00;91.30
47368;DHT22;34646;47.964;7.982;2023-03-23T15:09:29;18.00;91.40
47368;DHT22;34646;47.964;7.982;2023-03-23T15:15:31;18.00;85.30
47368;DHT22;34646;47.964;7.982;2023-03-23T15:21:35;17.40;83.80
47368;DHT22;34646;47.964;7.982;2023-03-23T15:27:54;17.90;91.30
47368;DHT22;34646;47.964;7.982;2023-03-23T15:34:00;17.90;91.20
47368;DHT22;34646;47.964;7.982;2023-03-23T15:46:04;17.80;90.90
47368;DHT22;34646;47.964;7.982;2023-03-23T15:52:09;17.60;90.90
47368;DHT22;34646;47.964;7.982;2023-03-23T15:58:12;17.60;91.00
47368;DHT22;34646;47.964;7.982;2023-03-23T16:04:17;18.00;91.00
47368;DHT22;34646;47.964;7.982;2023-03-23T16:10:22;17.90;91.10
47368;DHT22;34646;47.964;7.982;2023-03-23T16:16:29;18.00;91.20
47368;DHT22;34646;47.964;7.982;2023-03-23T16:22:31;17.60;91.20
47368;DHT22;34646;47.964;7.982;2023-03-23T16:28:31;17.80;91.40
47368;DHT22;34646;47.964;7.982;2023-03-23T16:40:38;17.50;91.50
47368;DHT22;34646;47.964;7.982;2023-03-23T16:46:38;17.50;91.50
47368;DHT22;34646;47.964;7.982;2023-03-23T16:52:40;17.60;91.50
47368;DHT22;34646;47.964;7.982;2023-03-23T16:58:41;17.40;91.50
47368;DHT22;34646;47.964;7.982;2023-03-23T17:04:44;17.70;91.70
47368;DHT22;34646;47.964;7.982;2023-03-23T17:10:45;18.00;91.90
47368;DHT22;34646;47.964;7.982;2023-03-23T17:16:46;17.60;92.00
47368;DHT22;34646;47.964;7.982;2023-03-23T17:22:47;17.70;92.20
47368;DHT22;34646;47.964;7.982;2023-03-23T17:28:47;17.50;92.60
47368;DHT22;34646;47.964;7.982;2023-03-23T17:34:48;17.30;92.40
47368;DHT22;34646;47.964;7.982;2023-03-23T17:40:56;17.90;92.60
47368;DHT22;34646;47.964;7.982;2023-03-23T17:46:58;17.80;86.50
47368;DHT22;34646;47.964;7.982;2023-03-23T17:53:02;17.70;92.60
47368;DHT22;34646;47.964;7.982;2023-03-23T17:59:02;17.40;92.60
47368;DHT22;34646;47.964;7.982;2023-03-23T18:05:04;17.50;92.90
47368;DHT22;34646;47.964;7.982;2023-03-23T18:11:06;17.40;90.30
47368;DHT22;34646;47.964;7.982;2023-03-23T18:17:07;17.70;93.10
47368;DHT22;34646;47.964;7.982;2023-03-23T18:23:07;17.90;93.00
47368;DHT22;34646;47.964;7.982;2023-03-23T18:35:10;17.50;92.60
47368;DHT22;34646;47.964;7.982;2023-03-23T18:41:11;17.60;92.60
47368;DHT22;34646;47.964;7.982;2023-03-23T18:47:12;17.50;88.00
47368;DHT22;34646;47.964;7.982;2023-03-23T18:53:13;17.50;92.50
47368;DHT22;34646;47.964;7.982;2023-03-23T18:59:15;17.70;92.50
47368;DHT22;34646;47.964;7.982;2023-03-23T19:05:16;17.90;92.60
47368;DHT22;34646;47.964;7.982;2023-03-23T19:11:17;18.10;92.80
47368;DHT22;34646;47.964;7.982;2023-03-23T19:17:18;17.80;92.70
47368;DHT22;34646;47.964;7.982;2023-03-23T19:23:20;17.40;92.90
47368;DHT22;34646;47.964;7.982;2023-03-23T19:29:21;18.00;93.10
47368;DHT22;34646;47.964;7.982;2023-03-23T19:35:22;17.10;92.80
47368;DHT22;34646;47.964;7.982;2023-03-23T19:41:24;17.50;93.10
47368;DHT22;34646;47.964;7.982;2023-03-23T19:47:24;17.40;89.10
47368;DHT22;34646;47.964;7.982;2023-03-23T19:53:25;17.30;93.10
47368;DHT22;34646;47.964;7.982;2023-03-23T19:59:26;17.40;93.10
47368;DHT22;34646;47.964;7.982;2023-03-23T20:05:28;17.40;93.10
47368;DHT22;34646;47.964;7.982;2023-03-23T20:11:29;17.40;93.20
47368;DHT22;34646;47.964;7.982;2023-03-23T20:17:30;17.50;93.00
47368;DHT22;34646;47.964;7.982;2023-03-23T20:23:33;17.50;87.70
47368;DHT22;34646;47.964;7.982;2023-03-23T20:29:34;17.50;89.10
47368;DHT22;34646;47.964;7.982;2023-03-23T20:35:34;17.50;92.90
47368;DHT22;34646;47.964;7.982;2023-03-23T20:41:36;17.30;87.00
47368;DHT22;34646;47.964;7.982;2023-03-23T20:47:38;17.40;92.70
47368;DHT22;34646;47.964;7.982;2023-03-23T20:53:39;17.80;92.80
47368;DHT22;34646;47.964;7.982;2023-03-23T20:59:40;17.20;92.60
47368;DHT22;34646;47.964;7.982;2023-03-23T21:05:42;17.90;92.70
47368;DHT22;34646;47.964;7.982;2023-03-23T21:11:44;17.50;92.90
47368;DHT22;34646;47.964;7.982;2023-03-23T21:17:45;17.10;92.50
47368;DHT22;34646;47.964;7.982;2023-03-23T21:23:46;17.30;92.40
47368;DHT22;34646;47.964;7.982;2023-03-23T21:29:56;17.60;92.50
47368;DHT22;34646;47.964;7.982;2023-03-23T21:35:57;17.40;92.70
47368;DHT22;34646;47.964;7.982;2023-03-23T21:41:57;17.40;92.40
47368;DHT22;34646;47.964;7.982;2023-03-23T21:47:59;17.40;92.50
47368;DHT22;34646;47.964;7.982;2023-03-23T21:53:59;17.50;92.40
47368;DHT22;34646;47.964;7.982;2023-03-23T22:00:00;17.30;92.30
47368;DHT22;34646;47.964;7.982;2023-03-23T22:06:11;17.30;92.30
47368;DHT22;34646;47.964;7.982;2023-03-23T22:12:12;17.40;92.30
47368;DHT22;34646;47.964;7.982;2023-03-23T22:18:13;17.20;92.20
47368;DHT22;34646;47.964;7.982;2023-03-23T22:24:14;17.50;92.20
47368;DHT22;34646;47.964;7.982;2023-03-23T22:30:15;17.40;92.20
47368;DHT22;34646;47.964;7.982;2023-03-23T22:36:16;17.50;92.20
47368;DHT22;34646;47.964;7.982;2023-03-23T22:42:17;17.00;92.10
47368;DHT22;34646;47.964;7.982;2023-03-23T22:48:18;17.60;92.10
47368;DHT22;34646;47.964;7.982;2023-03-23T22:54:19;17.20;92.00
47368;DHT22;34646;47.964;7.982;2023-03-23T23:06:21;17.70;92.10
47368;DHT22;34646;47.964;7.982;2023-03-23T23:12:22;17.30;92.10
47368;DHT22;34646;47.964;7.982;2023-03-23T23:18:25;17.40;86.00
47368;DHT22;34646;47.964;7.982;2023-03-23T23:24:26;17.10;92.00
47368;DHT22;34646;47.964;7.982;2023-03-23T23:30:28;17.50;92.10
47368;DHT22;34646;47.964;7.982;2023-03-23T23:36:29;17.00;91.90
47368;DHT22;34646;47.964;7.982;2023-03-23T23:42:31;16.90;91.90
47368;DHT22;34646;47.964;7.982;2023-03-23T23:54:34;17.20;91.90
